Murray, Kentucky
Current Conditions -  °F | °C
As of 12:15 PM on Thursday 29 Jan 2015 (Local Time) from KCEY Reporting Station
Overcast Overcast  
Wind Chill: 54°   Ceiling: 3400
Heat Index: 54°   Visibility: 10mi
Dew Point: 39°   Wind: 21mph
Humidity: 58%   Direction: 320°NW
Pressure: 30.07"   Gusts: 25mph
Location:  36.61°N, 88.3°W
Report Text: KCEY 291815Z AUTO 32018G22KT 10SM OVC034 12/04 A3007 RMK AO1
Loading
Personal Weather Stations






























Interactive Weather Map New forecast layout! Learn more

10-Day Weather Forecast

Advertisements
Track Severe Weather on mobile